Time;durP1;ratioP1;P1;durP2;ratioP2;P2;SDS_P1;SDS_P2;PMS_P1;PMS_P2;Temp;Humidity;BMP_temperature;BMP_pressure;BME280_temperature;BME280_humidity;BME280_pressure;Samples;Min_cycle;Max_cycle;Signal;HPM_P1;HPM_P2
2023/08/01 00:01:08;;;;;;;5.65;4.10;;;15.30;99.90;;;;;;4966494;28;20203;-85
2023/08/01 00:03:35;;;;;;;5.10;3.88;;;15.30;99.90;;;;;;4948364;28;20196;-85
2023/08/01 00:06:03;;;;;;;5.38;4.00;;;15.20;99.90;;;;;;4967210;28;20195;-86
2023/08/01 00:08:31;;;;;;;4.53;3.20;;;15.20;99.90;;;;;;4966917;28;20195;-84
2023/08/01 00:10:58;;;;;;;4.43;3.45;;;15.10;99.90;;;;;;4962722;28;20216;-85
2023/08/01 00:13:26;;;;;;;4.50;3.20;;;15.10;99.90;;;;;;4966902;28;20270;-86
2023/08/01 00:15:53;;;;;;;6.35;3.90;;;15.20;99.90;;;;;;4966775;28;20260;-85
2023/08/01 00:18:34;;;;;;;325.83;54.20;;;15.10;99.90;;;;;;4967816;28;20188;-84
2023/08/01 00:21:02;;;;;;;5.00;2.50;;;15.10;99.90;;;;;;4967598;28;20196;-86
2023/08/01 00:23:30;;;;;;;6.75;2.70;;;15.10;99.90;;;;;;4966304;28;20666;-85
2023/08/01 00:25:57;;;;;;;11.43;3.15;;;15.00;99.90;;;;;;4967801;28;20203;-85
2023/08/01 00:28:26;;;;;;;4.82;3.20;;;15.10;99.90;;;;;;4967332;28;20192;-85
2023/08/01 00:31:06;;;;;;;5.47;2.70;;;15.10;99.90;;;;;;5014924;28;21016;-85
2023/08/01 00:33:35;;;;;;;4.15;3.17;;;15.20;99.90;;;;;;4966503;28;20192;-86
2023/08/01 00:36:02;;;;;;;6.13;3.55;;;15.20;99.90;;;;;;4950455;28;20714;-85
2023/08/01 00:38:30;;;;;;;6.50;4.07;;;15.10;99.90;;;;;;4965419;28;20227;-86
2023/08/01 00:40:57;;;;;;;5.70;3.50;;;15.10;99.90;;;;;;4950291;28;20350;-85
2023/08/01 00:43:25;;;;;;;4.82;3.50;;;15.10;99.90;;;;;;4963876;28;20196;-86
2023/08/01 00:45:59;;;;;;;5.43;3.67;;;15.10;99.90;;;;;;4966401;28;20230;-85
2023/08/01 00:48:28;;;;;;;5.07;3.67;;;15.00;99.90;;;;;;4966169;28;20188;-86
2023/08/01 00:50:59;;;;;;;6.10;3.67;;;15.00;99.90;;;;;;4965903;28;20204;-84
2023/08/01 00:53:28;;;;;;;5.55;3.63;;;15.00;99.90;;;;;;4967592;28;20280;-86
2023/08/01 00:55:57;;;;;;;4.55;3.08;;;14.90;99.90;;;;;;4962765;28;20239;-85
2023/08/01 00:58:25;;;;;;;6.65;4.25;;;15.00;99.90;;;;;;4955983;28;20211;-86
2023/08/01 01:00:53;;;;;;;4.97;4.07;;;14.90;99.90;;;;;;4966785;28;20279;-86
2023/08/01 01:03:21;;;;;;;6.82;4.55;;;14.90;99.90;;;;;;4968810;28;20980;-86
2023/08/01 01:06:10;;;;;;;6.88;4.32;;;15.00;99.90;;;;;;4965663;28;20196;-86
2023/08/01 01:08:38;;;;;;;5.45;4.07;;;14.90;99.90;;;;;;4961659;28;20579;-85
2023/08/01 01:11:05;;;;;;;6.75;4.68;;;14.90;99.90;;;;;;4965617;28;20200;-86
2023/08/01 01:13:33;;;;;;;5.75;4.20;;;14.80;99.90;;;;;;5003146;28;20192;-85
2023/08/01 01:16:01;;;;;;;7.90;4.70;;;14.90;99.90;;;;;;4966151;28;20279;-84
2023/08/01 01:18:28;;;;;;;5.05;3.83;;;14.90;99.90;;;;;;4965973;28;20192;-85
2023/08/01 01:20:56;;;;;;;5.75;4.53;;;14.90;99.90;;;;;;4965802;28;20219;-86
2023/08/01 01:23:25;;;;;;;5.85;4.20;;;14.80;99.90;;;;;;4966965;28;20204;-86
2023/08/01 01:25:54;;;;;;;8.52;5.15;;;14.80;99.90;;;;;;4966065;28;20196;-86
2023/08/01 01:28:22;;;;;;;8.35;4.57;;;14.80;99.90;;;;;;4965272;28;20541;-86
2023/08/01 01:30:51;;;;;;;4.50;3.58;;;14.70;99.90;;;;;;4966403;28;20293;-85
2023/08/01 01:33:18;;;;;;;7.28;4.88;;;14.80;99.90;;;;;;4966309;28;20271;-86
2023/08/01 01:35:47;;;;;;;6.03;4.10;;;14.80;99.90;;;;;;4964869;28;20184;-85
2023/08/01 01:38:16;;;;;;;6.47;3.88;;;14.80;99.90;;;;;;4966186;28;20205;-85
2023/08/01 01:40:44;;;;;;;5.70;3.30;;;14.70;99.90;;;;;;4965577;28;20204;-86
2023/08/01 01:43:11;;;;;;;5.82;3.25;;;14.80;99.90;;;;;;4965733;28;20224;-85
2023/08/01 01:45:39;;;;;;;6.72;3.63;;;15.00;99.90;;;;;;4966453;28;20199;-85
2023/08/01 01:48:06;;;;;;;3.90;2.95;;;15.00;99.90;;;;;;4966476;28;20231;-85
2023/08/01 01:50:34;;;;;;;5.53;3.83;;;15.10;99.90;;;;;;4964940;28;20219;-86
2023/08/01 01:53:01;;;;;;;4.30;3.17;;;15.00;99.90;;;;;;4955171;28;20196;-85
2023/08/01 01:55:29;;;;;;;4.55;3.50;;;15.10;99.90;;;;;;4964859;28;20190;-86
2023/08/01 01:57:59;;;;;;;5.30;3.10;;;15.00;99.90;;;;;;4963894;28;20283;-86
2023/08/01 02:00:27;;;;;;;4.63;2.50;;;15.00;99.90;;;;;;4948387;28;20208;-86
2023/08/01 02:02:54;;;;;;;7.32;3.60;;;15.10;99.90;;;;;;4965916;28;20200;-85
2023/08/01 02:05:21;;;;;;;5.43;3.08;;;15.20;99.90;;;;;;4977546;28;20261;-85
2023/08/01 02:07:49;;;;;;;3.13;2.65;;;15.20;99.90;;;;;;4965297;28;20219;-86
2023/08/01 02:10:16;;;;;;;4.45;3.00;;;15.20;99.90;;;;;;4940800;28;20211;-86
2023/08/01 02:12:44;;;;;;;3.47;2.70;;;15.20;99.90;;;;;;4966277;28;21136;-86
2023/08/01 02:15:11;;;;;;;4.80;2.80;;;15.20;99.90;;;;;;4965046;28;20196;-86
2023/08/01 02:17:39;;;;;;;2.72;2.30;;;15.20;99.90;;;;;;4966040;28;20268;-86
2023/08/01 02:20:07;;;;;;;5.30;2.58;;;15.20;99.90;;;;;;4949126;28;20218;-85
2023/08/01 02:22:35;;;;;;;4.05;3.22;;;15.30;99.90;;;;;;4964567;28;20412;-85
2023/08/01 02:25:03;;;;;;;3.63;2.78;;;15.20;99.90;;;;;;4961544;28;20295;-85
2023/08/01 02:27:30;;;;;;;4.55;3.10;;;15.30;99.90;;;;;;4964610;28;20207;-86
2023/08/01 02:29:58;;;;;;;5.70;3.10;;;15.30;99.90;;;;;;4964669;28;20219;-83
2023/08/01 02:32:25;;;;;;;4.25;3.00;;;15.20;99.90;;;;;;4965960;28;20199;-86
2023/08/01 02:34:53;;;;;;;5.88;3.28;;;15.20;99.90;;;;;;4961584;28;20199;-86
2023/08/01 02:37:21;;;;;;;3.65;3.20;;;15.10;99.90;;;;;;4966059;28;20227;-86
2023/08/01 02:39:48;;;;;;;7.55;4.15;;;15.20;99.90;;;;;;4965989;28;20650;-85
2023/08/01 02:42:16;;;;;;;6.32;4.55;;;15.10;99.90;;;;;;4965692;28;20192;-86
2023/08/01 02:44:43;;;;;;;7.57;4.30;;;15.10;99.90;;;;;;4961403;28;20244;-85
2023/08/01 02:47:10;;;;;;;4.03;3.42;;;15.00;99.90;;;;;;4960443;28;20192;-85
2023/08/01 02:49:38;;;;;;;4.65;3.22;;;15.10;99.90;;;;;;4964411;28;20697;-84
2023/08/01 02:52:06;;;;;;;5.15;3.40;;;15.10;99.90;;;;;;4965242;28;20299;-86
2023/08/01 02:54:33;;;;;;;5.65;3.35;;;15.10;99.90;;;;;;4964847;28;20255;-86
2023/08/01 02:57:01;;;;;;;6.30;4.88;;;15.20;99.90;;;;;;4948566;28;20597;-86
2023/08/01 02:59:28;;;;;;;6.43;4.30;;;15.10;99.90;;;;;;4964317;28;20758;-85
2023/08/01 03:01:55;;;;;;;8.15;5.45;;;15.00;99.90;;;;;;4965317;28;20279;-85
2023/08/01 03:04:23;;;;;;;5.63;4.47;;;14.90;99.90;;;;;;5036506;28;20203;-84
2023/08/01 03:07:10;;;;;;;8.38;4.45;;;15.00;99.90;;;;;;4963550;28;20202;-86
2023/08/01 03:09:38;;;;;;;6.10;4.72;;;15.00;99.90;;;;;;4965105;28;20192;-84
2023/08/01 03:12:06;;;;;;;7.15;5.20;;;15.00;99.90;;;;;;4963861;28;20279;-85
2023/08/01 03:14:33;;;;;;;8.70;5.80;;;14.90;99.90;;;;;;4962926;28;20188;-85
2023/08/01 03:17:01;;;;;;;5.63;4.55;;;14.90;99.90;;;;;;4965909;28;20247;-84
2023/08/01 03:19:28;;;;;;;7.38;5.75;;;14.90;99.90;;;;;;4968794;28;20670;-86
2023/08/01 03:21:57;;;;;;;9.60;5.47;;;14.90;99.90;;;;;;4977172;28;20675;-85
2023/08/01 03:24:25;;;;;;;8.82;5.40;;;14.90;99.90;;;;;;4968377;28;20249;-85
2023/08/01 03:26:52;;;;;;;7.45;5.22;;;15.00;99.90;;;;;;4968574;28;20187;-85
2023/08/01 03:29:19;;;;;;;6.43;5.20;;;14.90;99.90;;;;;;4966993;28;20724;-85
2023/08/01 03:31:47;;;;;;;7.38;5.00;;;14.90;99.90;;;;;;4968629;28;20216;-86
2023/08/01 03:34:15;;;;;;;6.72;4.45;;;15.00;99.90;;;;;;4967279;28;20195;-84
2023/08/01 03:36:43;;;;;;;7.35;5.22;;;14.90;99.90;;;;;;4950966;28;20239;-85
2023/08/01 03:39:11;;;;;;;6.43;5.13;;;14.90;99.90;;;;;;4951585;28;20192;-86
2023/08/01 03:41:39;;;;;;;6.25;5.15;;;14.90;99.90;;;;;;4967709;28;20184;-86
2023/08/01 03:44:06;;;;;;;5.55;4.38;;;14.80;99.90;;;;;;4966854;28;20188;-85
2023/08/01 03:46:34;;;;;;;7.68;6.05;;;14.90;99.90;;;;;;4954294;28;20192;-85
2023/08/01 03:49:01;;;;;;;6.18;4.97;;;14.90;99.90;;;;;;4967969;28;20273;-85
2023/08/01 03:51:29;;;;;;;6.53;4.93;;;14.90;99.90;;;;;;4951564;28;20628;-86
2023/08/01 03:53:57;;;;;;;6.22;4.90;;;14.90;99.90;;;;;;4967729;28;20195;-85
2023/08/01 03:56:42;;;;;;;6.22;4.82;;;14.90;99.90;;;;;;4949101;28;20250;-86
2023/08/01 03:59:15;;;;;;;8.80;5.60;;;15.00;99.90;;;;;;4965020;28;20265;-86
2023/08/01 04:01:43;;;;;;;7.32;5.13;;;15.00;99.90;;;;;;4979254;28;20200;-86
2023/08/01 04:04:11;;;;;;;9.85;5.72;;;15.00;99.90;;;;;;4966422;28;20199;-86
2023/08/01 04:06:38;;;;;;;9.40;5.07;;;15.10;99.90;;;;;;4947640;28;20200;-85
2023/08/01 04:09:06;;;;;;;8.15;5.47;;;15.10;99.90;;;;;;4944450;28;20574;-85
2023/08/01 04:11:34;;;;;;;8.70;5.28;;;15.20;99.90;;;;;;4950688;28;20227;-86
2023/08/01 04:14:02;;;;;;;8.60;5.40;;;15.20;99.90;;;;;;4966625;28;20624;-85
2023/08/01 04:16:29;;;;;;;6.78;4.88;;;15.10;99.90;;;;;;4967901;28;20274;-86
2023/08/01 04:18:57;;;;;;;8.10;5.65;;;15.20;99.90;;;;;;4966150;28;20198;-86
2023/08/01 04:21:24;;;;;;;6.60;5.43;;;15.20;99.90;;;;;;4966831;28;20269;-85
2023/08/01 04:23:52;;;;;;;7.93;5.30;;;15.20;99.90;;;;;;4977138;28;20571;-85
2023/08/01 04:26:19;;;;;;;8.35;5.85;;;15.20;99.90;;;;;;4968197;28;20196;-87
2023/08/01 04:28:50;;;;;;;7.13;4.85;;;15.20;99.90;;;;;;4950253;28;20191;-86
2023/08/01 04:31:18;;;;;;;6.82;5.05;;;15.20;99.90;;;;;;4966832;28;20272;-86
2023/08/01 04:33:45;;;;;;;7.25;4.75;;;15.20;99.90;;;;;;4972058;28;20196;-85
2023/08/01 04:36:13;;;;;;;6.50;4.60;;;15.30;99.90;;;;;;4967287;28;20770;-86
2023/08/01 04:38:41;;;;;;;10.93;5.60;;;15.30;99.90;;;;;;4968667;28;20275;-84
2023/08/01 04:41:09;;;;;;;6.65;4.97;;;15.40;99.90;;;;;;4968524;28;20196;-86
2023/08/01 04:43:37;;;;;;;7.20;5.43;;;15.40;99.90;;;;;;4949604;28;20196;-85
2023/08/01 04:46:04;;;;;;;7.72;5.88;;;15.40;99.90;;;;;;4968231;28;20199;-86
2023/08/01 04:48:32;;;;;;;8.48;5.93;;;15.40;99.90;;;;;;4998065;28;20710;-85
2023/08/01 04:50:59;;;;;;;6.88;5.30;;;15.40;99.90;;;;;;4967229;28;20214;-85
2023/08/01 04:53:27;;;;;;;7.55;5.22;;;15.40;99.90;;;;;;4966849;28;20200;-86
2023/08/01 04:55:54;;;;;;;7.45;5.38;;;15.40;99.90;;;;;;4968284;28;20313;-86
2023/08/01 04:58:23;;;;;;;9.20;5.50;;;15.50;99.90;;;;;;4964400;28;20204;-85
2023/08/01 05:00:51;;;;;;;9.13;5.60;;;15.50;99.90;;;;;;4967007;28;20196;-84
2023/08/01 05:03:19;;;;;;;9.05;5.78;;;15.50;99.90;;;;;;4968634;28;20191;-86
2023/08/01 05:05:46;;;;;;;10.15;5.90;;;15.50;99.90;;;;;;4964970;28;20555;-86
2023/08/01 05:08:14;;;;;;;8.13;4.75;;;15.60;99.90;;;;;;4968564;28;20188;-86
2023/08/01 05:10:41;;;;;;;8.90;5.30;;;15.60;99.90;;;;;;4950972;28;20215;-86
2023/08/01 05:13:09;;;;;;;6.53;4.50;;;15.70;99.90;;;;;;4968249;28;20195;-85
2023/08/01 05:15:36;;;;;;;9.50;5.07;;;15.70;99.90;;;;;;4950588;28;20193;-85
2023/08/01 05:18:04;;;;;;;6.97;5.30;;;15.70;99.90;;;;;;4966297;28;20199;-86
2023/08/01 05:20:33;;;;;;;9.88;5.50;;;15.70;99.90;;;;;;4941909;28;20924;-86
2023/08/01 05:23:01;;;;;;;10.95;4.80;;;15.70;99.90;;;;;;4965466;28;20378;-85
2023/08/01 05:25:28;;;;;;;7.22;4.47;;;15.70;99.90;;;;;;4965738;28;20820;-86
2023/08/01 05:27:56;;;;;;;7.32;5.00;;;15.80;99.90;;;;;;4964014;28;20581;-85
2023/08/01 05:30:24;;;;;;;8.60;5.13;;;15.80;99.90;;;;;;4967587;28;20244;-84
2023/08/01 05:32:53;;;;;;;9.98;5.63;;;15.80;99.90;;;;;;4947881;28;20212;-86
2023/08/01 05:35:22;;;;;;;10.52;4.90;;;15.90;99.90;;;;;;4959758;28;20744;-85
2023/08/01 05:37:49;;;;;;;8.60;5.03;;;15.90;99.90;;;;;;4973425;28;20722;-84
2023/08/01 05:40:17;;;;;;;8.55;5.22;;;16.00;99.90;;;;;;4967894;28;20688;-84
2023/08/01 05:42:44;;;;;;;8.23;5.25;;;16.10;99.90;;;;;;4975801;28;20192;-85
2023/08/01 05:45:12;;;;;;;7.38;4.35;;;16.20;99.90;;;;;;4967024;28;20180;-85
2023/08/01 05:47:40;;;;;;;7.82;4.68;;;16.20;99.90;;;;;;4975813;28;20196;-87
2023/08/01 05:50:08;;;;;;;7.47;4.18;;;16.30;99.90;;;;;;4965914;28;20227;-86
2023/08/01 05:52:36;;;;;;;8.57;5.78;;;16.40;99.90;;;;;;4967595;28;20790;-86
2023/08/01 05:55:04;;;;;;;8.85;4.80;;;16.40;99.90;;;;;;4966862;28;20188;-85
2023/08/01 05:57:31;;;;;;;8.82;4.85;;;16.50;99.90;;;;;;4967566;28;20184;-86
2023/08/01 05:59:59;;;;;;;6.78;4.13;;;16.60;99.90;;;;;;4958557;28;20302;-87
2023/08/01 06:02:27;;;;;;;8.57;4.43;;;16.60;99.90;;;;;;4967479;28;20196;-86
2023/08/01 06:04:54;;;;;;;9.70;4.35;;;16.60;99.90;;;;;;4966145;28;20199;-86
2023/08/01 06:07:22;;;;;;;7.85;4.40;;;16.70;99.90;;;;;;4998596;28;20219;-86
2023/08/01 06:09:51;;;;;;;10.95;4.28;;;16.70;99.90;;;;;;4961931;28;20198;-86
2023/08/01 06:12:19;;;;;;;7.32;4.68;;;16.70;99.90;;;;;;4967274;28;20920;-86
2023/08/01 06:14:48;;;;;;;6.40;4.13;;;16.80;99.90;;;;;;4963342;28;20563;-86
2023/08/01 06:17:15;;;;;;;8.25;4.30;;;16.90;99.90;;;;;;4966421;28;20560;-87
2023/08/01 06:19:43;;;;;;;8.43;4.57;;;17.00;99.90;;;;;;4966103;28;20192;-87
2023/08/01 06:22:10;;;;;;;9.15;4.47;;;17.10;99.90;;;;;;4965990;28;20211;-87
2023/08/01 06:24:38;;;;;;;8.07;3.83;;;17.20;99.90;;;;;;4967130;28;20665;-87
2023/08/01 06:27:06;;;;;;;6.47;4.00;;;17.10;99.90;;;;;;4967139;28;20210;-89
2023/08/01 06:29:34;;;;;;;10.05;4.38;;;17.00;99.90;;;;;;4967121;28;20208;-89
2023/08/01 06:32:02;;;;;;;8.57;4.50;;;17.10;99.90;;;;;;5010407;28;20218;-85
2023/08/01 06:34:29;;;;;;;8.10;4.55;;;17.30;99.90;;;;;;4967361;28;20200;-86
2023/08/01 06:36:57;;;;;;;9.57;4.40;;;17.20;99.90;;;;;;4965717;28;20325;-87
2023/08/01 06:39:25;;;;;;;5.13;4.13;;;17.30;99.90;;;;;;4965568;28;20275;-87
2023/08/01 06:41:52;;;;;;;8.07;4.07;;;17.40;99.90;;;;;;4966093;28;20200;-89
2023/08/01 06:44:20;;;;;;;6.88;4.07;;;17.30;99.90;;;;;;4965619;28;20296;-88
2023/08/01 06:46:47;;;;;;;11.73;4.55;;;17.30;99.90;;;;;;4965982;28;20227;-89
2023/08/01 06:49:15;;;;;;;6.43;3.75;;;17.40;99.90;;;;;;4965917;28;20188;-90
2023/08/01 06:51:43;;;;;;;9.45;4.53;;;17.50;99.90;;;;;;4966149;28;20208;-90
2023/08/01 06:54:10;;;;;;;8.07;4.05;;;17.70;99.90;;;;;;4970895;28;20646;-89
2023/08/01 06:56:38;;;;;;;7.55;3.85;;;17.60;99.90;;;;;;4968419;28;20216;-86
2023/08/01 06:59:06;;;;;;;6.95;4.15;;;17.50;99.90;;;;;;4966947;28;20239;-89
2023/08/01 07:01:34;;;;;;;6.93;4.07;;;17.50;99.90;;;;;;4969307;28;20573;-90
2023/08/01 07:04:02;;;;;;;6.50;4.13;;;17.60;99.90;;;;;;4985026;28;20188;-87
2023/08/01 07:06:30;;;;;;;8.10;3.95;;;17.70;99.90;;;;;;4951226;28;20284;-89
2023/08/01 07:08:59;;;;;;;6.57;3.35;;;17.80;99.90;;;;;;4967927;28;20192;-90
2023/08/01 07:11:26;;;;;;;5.93;3.65;;;17.80;99.90;;;;;;4949368;28;20208;-90
2023/08/01 07:13:54;;;;;;;8.25;3.50;;;17.90;99.90;;;;;;5014018;28;20191;-89
2023/08/01 07:16:22;;;;;;;8.85;3.53;;;18.00;99.90;;;;;;4968060;28;21077;-86
2023/08/01 07:18:50;;;;;;;10.68;3.95;;;18.00;99.90;;;;;;4970165;28;20188;-89
2023/08/01 07:21:19;;;;;;;7.90;3.38;;;18.10;99.90;;;;;;4980936;28;20200;-90
2023/08/01 07:23:48;;;;;;;7.38;4.05;;;18.20;99.90;;;;;;4968796;28;20258;-89
2023/08/01 07:26:15;;;;;;;6.93;3.25;;;18.20;99.90;;;;;;4953243;28;20195;-89
2023/08/01 07:28:43;;;;;;;8.80;3.40;;;18.10;99.90;;;;;;4954245;28;20232;-89
2023/08/01 07:31:11;;;;;;;4.82;3.05;;;18.30;99.90;;;;;;4952875;28;21289;-89
2023/08/01 07:33:38;;;;;;;6.93;3.15;;;18.40;99.90;;;;;;4968670;28;20196;-90
2023/08/01 07:36:06;;;;;;;5.05;3.00;;;18.60;99.90;;;;;;4970466;28;20208;-90
2023/08/01 07:38:34;;;;;;;5.13;2.33;;;18.80;99.90;;;;;;4954211;28;20188;-91
2023/08/01 07:41:07;;;;;;;5.00;2.60;;;19.00;99.90;;;;;;4951142;28;20212;-90
2023/08/01 07:43:34;;;;;;;4.97;2.90;;;19.00;99.90;;;;;;4951193;28;20288;-91
2023/08/01 07:46:03;;;;;;;7.10;3.00;;;18.90;99.90;;;;;;4985275;28;20227;-88
2023/08/01 07:48:32;;;;;;;7.15;2.83;;;18.90;99.90;;;;;;4968752;28;20192;-89
2023/08/01 07:51:05;;;;;;;4.43;2.83;;;18.90;99.90;;;;;;4970495;28;20574;-90
2023/08/01 07:53:33;;;;;;;6.05;2.67;;;19.00;99.90;;;;;;4966138;28;20230;-88
2023/08/01 07:56:02;;;;;;;6.10;2.50;;;19.10;99.90;;;;;;4962671;28;20193;-89
2023/08/01 07:58:30;;;;;;;5.32;2.80;;;19.10;99.90;;;;;;4964634;28;20197;-89
2023/08/01 08:01:04;;;;;;;3.53;2.55;;;19.10;99.90;;;;;;4949507;28;20192;-89
2023/08/01 08:03:32;;;;;;;4.65;2.63;;;19.00;99.90;;;;;;4946767;28;20264;-89
2023/08/01 08:06:00;;;;;;;3.55;2.22;;;19.10;99.90;;;;;;4959951;28;20252;-88
2023/08/01 08:08:27;;;;;;;5.75;2.38;;;19.00;99.90;;;;;;4968710;28;20210;-89
2023/08/01 08:10:55;;;;;;;4.20;2.55;;;19.10;99.90;;;;;;4969622;28;20658;-90
2023/08/01 08:13:23;;;;;;;6.47;2.13;;;19.10;99.90;;;;;;4933702;28;20284;-89
2023/08/01 08:15:51;;;;;;;3.70;2.42;;;19.10;99.90;;;;;;4968477;28;20195;-89
2023/08/01 08:18:19;;;;;;;3.42;2.17;;;19.20;99.90;;;;;;4968613;28;20190;-89
2023/08/01 08:20:47;;;;;;;2.97;2.10;;;19.20;99.90;;;;;;4969016;28;20192;-89
2023/08/01 08:23:15;;;;;;;3.80;2.28;;;19.30;99.90;;;;;;4969720;28;20191;-89
2023/08/01 08:25:47;;;;;;;3.65;2.17;;;19.40;99.90;;;;;;4968910;28;20753;-89
2023/08/01 08:28:29;;;;;;;5.38;2.40;;;19.50;99.90;;;;;;4937792;28;20199;-88
2023/08/01 08:31:00;;;;;;;4.47;2.45;;;19.40;99.90;;;;;;4944067;29;20197;-89
2023/08/01 08:33:27;;;;;;;5.88;2.50;;;19.50;99.90;;;;;;4962895;28;20656;-89
2023/08/01 08:35:55;;;;;;;3.15;2.40;;;19.60;99.90;;;;;;4953038;28;20228;-90
2023/08/01 08:38:23;;;;;;;2.88;2.13;;;19.60;99.90;;;;;;4965898;28;20275;-89
2023/08/01 08:40:57;;;;;;;3.92;2.50;;;19.60;99.90;;;;;;4958183;28;20338;-89
2023/08/01 08:43:26;;;;;;;5.50;2.20;;;19.60;99.90;;;;;;4965764;28;20192;-90
2023/08/01 08:45:59;;;;;;;5.10;2.15;;;19.70;99.90;;;;;;4933979;28;20618;-90
2023/08/01 08:48:28;;;;;;;3.38;2.05;;;19.60;99.90;;;;;;4935880;28;20193;-90
2023/08/01 08:51:03;;;;;;;6.60;2.57;;;19.60;99.90;;;;;;4964610;28;20188;-90
2023/08/01 08:53:32;;;;;;;3.90;2.38;;;19.60;99.90;;;;;;4969243;28;20954;-89
2023/08/01 08:56:01;;;;;;;3.22;2.40;;;19.50;99.90;;;;;;4952346;28;20196;-89
2023/08/01 08:58:33;;;;;;;5.30;2.55;;;19.70;99.90;;;;;;4965210;28;20196;-90
2023/08/01 09:01:08;;;;;;;2.88;2.22;;;19.60;99.90;;;;;;4968526;28;20570;-90
2023/08/01 09:03:37;;;;;;;3.55;2.55;;;19.70;99.90;;;;;;4968543;28;20238;-90
2023/08/01 09:06:17;;;;;;;4.93;2.45;;;19.90;99.90;;;;;;4969781;28;20198;-89
2023/08/01 09:08:51;;;;;;;7.10;3.03;;;19.90;99.90;;;;;;4968725;28;20217;-90
2023/08/01 09:11:19;;;;;;;6.63;2.35;;;19.80;99.90;;;;;;4968829;28;20172;-89
2023/08/01 09:13:48;;;;;;;5.50;2.53;;;19.90;99.90;;;;;;4951083;28;20188;-90
2023/08/01 09:16:16;;;;;;;6.13;2.30;;;19.80;99.90;;;;;;4951602;28;20767;-90
2023/08/01 09:18:51;;;;;;;4.50;2.45;;;19.60;99.90;;;;;;4965054;28;20196;-89
2023/08/01 09:21:20;;;;;;;6.20;2.80;;;19.60;99.90;;;;;;4964933;28;20180;-89
2023/08/01 09:23:48;;;;;;;2.97;2.22;;;19.50;99.90;;;;;;4968034;28;20286;-91
2023/08/01 09:26:19;;;;;;;5.70;2.58;;;19.60;99.90;;;;;;4968086;28;20747;-90
2023/08/01 09:28:57;;;;;;;4.55;2.47;;;19.70;99.90;;;;;;4968699;28;20245;-90
2023/08/01 09:31:33;;;;;;;4.68;2.42;;;19.70;99.90;;;;;;4968383;28;20188;-90
2023/08/01 09:34:05;;;;;;;4.82;2.25;;;19.70;99.90;;;;;;4951643;28;20198;-91
2023/08/01 09:36:34;;;;;;;4.35;2.78;;;19.70;99.90;;;;;;4965609;28;20232;-91
2023/08/01 09:39:03;;;;;;;5.75;2.70;;;19.70;99.90;;;;;;4965350;28;20196;-90
2023/08/01 09:41:32;;;;;;;3.28;2.13;;;19.80;99.90;;;;;;4983607;28;20192;-90
2023/08/01 09:44:00;;;;;;;5.93;2.83;;;19.80;99.90;;;;;;4969518;28;20202;-90
2023/08/01 09:46:28;;;;;;;4.75;2.63;;;19.90;99.90;;;;;;4957122;28;20283;-91
2023/08/01 09:49:06;;;;;;;3.40;2.53;;;20.10;99.90;;;;;;4950478;29;20184;-90
2023/08/01 09:51:33;;;;;;;5.72;2.30;;;20.10;99.90;;;;;;4949258;28;20215;-91
2023/08/01 09:54:01;;;;;;;3.58;2.60;;;20.10;99.90;;;;;;4968118;28;20204;-88
2023/08/01 09:56:29;;;;;;;6.35;2.70;;;20.10;99.90;;;;;;4984545;28;20192;-91
2023/08/01 09:58:59;;;;;;;2.97;2.15;;;20.20;99.90;;;;;;4952456;28;20249;-90
2023/08/01 10:01:27;;;;;;;3.40;2.45;;;20.10;99.90;;;;;;4968487;28;20687;-89
2023/08/01 10:03:57;;;;;;;6.20;2.83;;;20.10;99.90;;;;;;4968375;28;20214;-90
2023/08/01 10:06:31;;;;;;;6.65;2.55;;;20.20;99.90;;;;;;4952202;28;20192;-90
2023/08/01 10:09:00;;;;;;;6.40;3.20;;;20.20;99.90;;;;;;4952182;28;20188;-91
2023/08/01 10:11:34;;;;;;;6.72;3.50;;;20.30;99.90;;;;;;4952470;28;20184;-92
2023/08/01 10:14:04;;;;;;;4.43;2.88;;;20.70;99.90;;;;;;4949627;28;20196;-91
2023/08/01 10:16:37;;;;;;;5.03;3.03;;;20.60;99.90;;;;;;4949759;28;20195;-91
2023/08/01 10:19:07;;;;;;;3.80;2.78;;;20.80;99.90;;;;;;4949511;28;20195;-92
2023/08/01 10:21:36;;;;;;;7.43;3.00;;;20.80;99.90;;;;;;4974644;28;20214;-93
2023/08/01 10:24:06;;;;;;;4.20;3.15;;;20.90;99.90;;;;;;4952516;28;20190;-92
2023/08/01 10:26:34;;;;;;;5.95;2.78;;;21.00;99.90;;;;;;4952840;28;20530;-91
2023/08/01 10:29:02;;;;;;;7.25;3.35;;;21.10;99.90;;;;;;4955007;28;20195;-92
2023/08/01 10:31:30;;;;;;;3.92;2.72;;;21.20;99.90;;;;;;4953701;28;20193;-91
2023/08/01 10:34:12;;;;;;;7.30;2.80;;;21.40;99.90;;;;;;4971077;28;20192;-92
2023/08/01 10:36:55;;;;;;;6.78;3.10;;;21.70;99.90;;;;;;4944923;28;20872;-92
2023/08/01 10:39:26;;;;;;;6.03;3.22;;;21.60;99.90;;;;;;4966537;28;20197;-91
2023/08/01 10:42:02;;;;;;;7.13;2.80;;;21.40;99.90;;;;;;4964477;28;20189;-91
2023/08/01 10:44:31;;;;;;;6.57;2.97;;;21.30;99.90;;;;;;4972177;28;20187;-92
2023/08/01 10:47:04;;;;;;;6.28;3.47;;;21.20;99.90;;;;;;4968399;28;20228;-91
2023/08/01 10:49:43;;;;;;;6.25;2.92;;;21.20;99.90;;;;;;4956431;28;20283;-93
2023/08/01 10:52:24;;;;;;;7.35;3.20;;;21.10;99.90;;;;;;4955421;28;20215;-91
2023/08/01 10:54:59;;;;;;;3.90;2.50;;;21.20;99.90;;;;;;4971583;28;20180;-92
2023/08/01 10:57:29;;;;;;;4.95;3.22;;;21.00;99.90;;;;;;4963863;28;20678;-92
2023/08/01 10:59:57;;;;;;;5.40;3.35;;;21.00;99.90;;;;;;4957497;28;20253;-91
2023/08/01 11:02:27;;;;;;;9.70;3.33;;;21.10;99.90;;;;;;4986127;28;20291;-91
2023/08/01 11:05:03;;;;;;;3.97;2.60;;;21.20;99.90;;;;;;4955979;28;20613;-92
2023/08/01 11:07:31;;;;;;;3.45;2.50;;;21.30;99.90;;;;;;4959838;28;20203;-92
2023/08/01 11:10:09;;;;;;;6.57;2.97;;;21.30;99.90;;;;;;4955316;28;20199;-92
2023/08/01 11:12:39;;;;;;;6.78;2.88;;;21.40;99.90;;;;;;4971341;28;20258;-90
2023/08/01 11:15:09;;;;;;;7.10;2.90;;;21.30;99.90;;;;;;4972459;28;20316;-92
2023/08/01 11:17:38;;;;;;;10.02;3.15;;;21.60;99.90;;;;;;4967871;28;20320;-91
2023/08/01 11:20:08;;;;;;;5.30;2.70;;;21.90;99.90;;;;;;4952233;29;20181;-91
2023/08/01 11:22:36;;;;;;;5.93;2.55;;;22.10;99.90;;;;;;4952445;29;20242;-92
2023/08/01 11:25:05;;;;;;;5.65;2.70;;;22.20;99.90;;;;;;4935876;28;20197;-92
2023/08/01 11:27:34;;;;;;;8.15;2.90;;;22.20;99.90;;;;;;4947499;28;20235;-92
2023/08/01 11:30:03;;;;;;;6.30;3.03;;;22.50;99.90;;;;;;4954989;28;20188;-92
2023/08/01 11:32:36;;;;;;;3.88;2.70;;;22.50;99.90;;;;;;4957062;28;20238;-92
2023/08/01 11:35:08;;;;;;;4.70;2.72;;;22.50;99.90;;;;;;4954884;28;20189;-91
2023/08/01 11:37:37;;;;;;;3.40;2.38;;;22.60;99.90;;;;;;4955281;28;20235;-92
2023/08/01 11:40:07;;;;;;;8.43;2.30;;;22.70;99.90;;;;;;4954822;28;20286;-92
2023/08/01 11:42:35;;;;;;;3.35;2.33;;;22.80;99.90;;;;;;4970874;28;20187;-93
2023/08/01 11:45:11;;;;;;;4.10;2.33;;;22.80;99.90;;;;;;4955113;28;20196;-94
2023/08/01 11:47:46;;;;;;;7.50;2.42;;;22.60;99.90;;;;;;4952357;28;20210;-92
2023/08/01 11:50:20;;;;;;;5.00;2.20;;;22.30;99.90;;;;;;4935888;28;20776;-92
2023/08/01 11:52:47;;;;;;;6.40;2.53;;;22.00;99.90;;;;;;4951391;28;20595;-93
2023/08/01 11:55:27;;;;;;;2.95;2.00;;;21.80;99.90;;;;;;4951844;29;20204;-93
2023/08/01 11:57:56;;;;;;;6.72;2.70;;;21.90;99.90;;;;;;4959646;28;20670;-94
2023/08/01 12:00:28;;;;;;;5.70;2.50;;;21.90;99.90;;;;;;4961487;28;20261;-93
2023/08/01 12:03:12;;;;;;;4.47;2.33;;;21.90;99.90;;;;;;4970071;28;20282;-94
2023/08/01 12:05:45;;;;;;;4.25;2.45;;;22.30;99.90;;;;;;4948460;28;20287;-93
2023/08/01 12:08:15;;;;;;;4.28;2.63;;;22.70;99.90;;;;;;4955483;28;20188;-94
2023/08/01 12:10:45;;;;;;;4.72;2.30;;;22.80;99.90;;;;;;4938979;28;20294;-94
2023/08/01 12:13:24;;;;;;;6.43;2.50;;;22.50;99.90;;;;;;4953813;28;20222;-92
2023/08/01 12:15:56;;;;;;;5.82;2.47;;;22.30;99.90;;;;;;4950950;28;20267;-93
2023/08/01 12:18:25;;;;;;;6.50;2.58;;;22.10;99.90;;;;;;4970343;28;20208;-95
2023/08/01 12:20:56;;;;;;;4.57;2.70;;;22.00;99.90;;;;;;4960438;28;20183;-93
2023/08/01 12:23:28;;;;;;;3.95;2.60;;;21.90;99.90;;;;;;4969757;28;20184;-94
2023/08/01 12:25:57;;;;;;;2.90;2.20;;;21.80;99.90;;;;;;4954569;28;20213;-93
2023/08/01 12:28:32;;;;;;;4.65;2.65;;;21.80;99.90;;;;;;4968174;28;20294;-94
2023/08/01 12:31:03;;;;;;;4.72;2.88;;;21.80;99.90;;;;;;4950145;28;20193;-93
2023/08/01 12:33:32;;;;;;;3.45;2.40;;;21.70;99.90;;;;;;4948920;28;20209;-94
2023/08/01 12:36:00;;;;;;;5.55;2.13;;;21.70;99.90;;;;;;4944608;28;20262;-94
2023/08/01 12:38:29;;;;;;;4.00;2.53;;;21.70;99.90;;;;;;4966772;28;20207;-94
2023/08/01 12:40:56;;;;;;;3.17;2.30;;;21.60;99.90;;;;;;4954320;28;20188;-94
2023/08/01 12:43:26;;;;;;;8.85;2.53;;;21.80;99.90;;;;;;4953106;28;20297;-93
2023/08/01 12:45:55;;;;;;;6.28;2.38;;;22.00;99.90;;;;;;4950947;28;20195;-94
2023/08/01 12:48:22;;;;;;;4.60;2.30;;;21.90;99.90;;;;;;4967201;28;20268;-93
2023/08/01 12:50:51;;;;;;;5.07;2.50;;;22.00;99.90;;;;;;4946534;28;20210;-94
2023/08/01 12:53:20;;;;;;;5.03;2.50;;;22.00;99.90;;;;;;4970367;28;20203;-93
2023/08/01 12:55:50;;;;;;;5.90;2.50;;;22.50;99.90;;;;;;4953907;28;20265;-93